createdAt,value
2023-03-19T00:01:09.621Z,8.85
2023-03-19T00:03:51.598Z,8.90
2023-03-19T00:06:33.615Z,8.89
2023-03-19T00:09:07.523Z,8.89
2023-03-19T00:11:38.296Z,8.89
2023-03-19T00:14:09.045Z,8.90
2023-03-19T00:16:47.254Z,8.91
2023-03-19T00:19:18.585Z,8.91
2023-03-19T00:21:49.360Z,8.92
2023-03-19T00:24:22.770Z,8.94
2023-03-19T00:26:56.060Z,8.95
2023-03-19T00:29:27.713Z,8.94
2023-03-19T00:31:58.502Z,8.92
2023-03-19T00:34:29.479Z,8.90
2023-03-19T00:37:00.253Z,8.88
2023-03-19T00:39:31.064Z,8.89
2023-03-19T00:42:05.095Z,8.90
2023-03-19T00:44:37.900Z,8.94
2023-03-19T00:47:18.677Z,8.97
2023-03-19T00:49:49.318Z,9.00
2023-03-19T00:52:20.596Z,9.03
2023-03-19T00:54:51.497Z,9.08
2023-03-19T00:57:21.320Z,9.11
2023-03-19T00:59:57.608Z,9.13
2023-03-19T01:02:28.726Z,9.13
2023-03-19T01:05:02.205Z,9.10
2023-03-19T01:07:32.929Z,9.04
2023-03-19T01:10:25.426Z,8.94
2023-03-19T01:12:56.945Z,8.86
2023-03-19T01:15:27.612Z,8.81
2023-03-19T01:18:01.214Z,8.77
2023-03-19T01:20:34.933Z,8.73
2023-03-19T01:23:06.695Z,8.71
2023-03-19T01:25:48.711Z,8.69
2023-03-19T01:28:29.577Z,8.65
2023-03-19T01:31:07.064Z,8.62
2023-03-19T01:33:43.752Z,8.58
2023-03-19T01:36:20.503Z,8.51
2023-03-19T01:39:15.691Z,8.46
2023-03-19T01:41:46.894Z,8.43
2023-03-19T01:44:45.462Z,8.38
2023-03-19T01:47:34.545Z,8.32
2023-03-19T01:50:27.284Z,8.29
2023-03-19T01:53:27.334Z,8.22
2023-03-19T01:56:22.308Z,8.15
2023-03-19T01:59:05.436Z,8.09
2023-03-19T02:02:17.674Z,8.04
2023-03-19T02:04:52.522Z,8.00
2023-03-19T02:07:24.003Z,7.97
2023-03-19T02:09:57.992Z,7.95
2023-03-19T02:12:29.070Z,7.94
2023-03-19T02:15:00.180Z,7.94
2023-03-19T02:17:32.596Z,7.94
2023-03-19T02:20:09.819Z,7.94
2023-03-19T02:22:44.336Z,7.93
2023-03-19T02:25:23.657Z,7.92
2023-03-19T02:27:54.758Z,7.89
2023-03-19T02:30:37.290Z,7.84
2023-03-19T02:33:16.117Z,7.78
2023-03-19T02:35:49.774Z,7.72
2023-03-19T02:38:24.686Z,7.67
2023-03-19T02:41:00.943Z,7.65
2023-03-19T02:43:35.371Z,7.64
2023-03-19T02:46:09.330Z,7.63
2023-03-19T02:48:44.496Z,7.63
2023-03-19T02:51:15.831Z,7.67
2023-03-19T02:53:47.301Z,7.70
2023-03-19T02:56:18.068Z,7.72
2023-03-19T02:58:48.635Z,7.75
2023-03-19T03:01:19.509Z,7.78
2023-03-19T03:03:52.716Z,7.83
2023-03-19T03:06:23.648Z,7.88
2023-03-19T03:08:56.893Z,7.92
2023-03-19T03:11:31.081Z,7.97
2023-03-19T03:14:04.683Z,8.01
2023-03-19T03:16:38.794Z,8.03
2023-03-19T03:19:09.744Z,8.06
2023-03-19T03:21:43.184Z,8.08
2023-03-19T03:24:16.074Z,8.10
2023-03-19T03:26:46.637Z,8.10
2023-03-19T03:29:19.302Z,8.10
2023-03-19T03:31:49.930Z,8.11
2023-03-19T03:34:21.018Z,8.12
2023-03-19T03:36:52.265Z,8.13
2023-03-19T03:39:23.128Z,8.15
2023-03-19T03:41:53.908Z,8.17
2023-03-19T03:44:28.096Z,8.19
2023-03-19T03:46:59.460Z,8.22
2023-03-19T03:49:32.878Z,8.24
2023-03-19T03:52:09.282Z,8.27
2023-03-19T03:54:42.683Z,8.28
2023-03-19T03:57:13.341Z,8.28
2023-03-19T03:59:44.793Z,8.29
2023-03-19T04:02:17.577Z,8.30
2023-03-19T04:04:48.737Z,8.30
2023-03-19T04:07:19.712Z,8.30
2023-03-19T04:09:58.572Z,8.29
2023-03-19T04:12:29.243Z,8.30
2023-03-19T04:15:00.107Z,8.30
2023-03-19T04:17:30.691Z,8.30
2023-03-19T04:20:02.055Z,8.30
2023-03-19T04:22:33.555Z,8.32
2023-03-19T04:25:05.201Z,8.34
2023-03-19T04:27:36.111Z,8.35
2023-03-19T04:30:15.992Z,8.37
2023-03-19T04:32:48.788Z,8.39
2023-03-19T04:35:19.930Z,8.36
2023-03-19T04:38:04.175Z,8.39
2023-03-19T04:40:35.241Z,8.38
2023-03-19T04:43:05.591Z,8.38
2023-03-19T04:45:38.065Z,8.39
2023-03-19T04:48:10.225Z,8.42
2023-03-19T04:50:41.462Z,8.44
2023-03-19T04:53:39.952Z,8.46
2023-03-19T04:56:18.046Z,8.46
2023-03-19T04:58:49.323Z,8.45
2023-03-19T05:01:20.613Z,8.43
2023-03-19T05:04:24.002Z,8.43
2023-03-19T05:06:55.070Z,8.42
2023-03-19T05:09:31.134Z,8.42
2023-03-19T05:12:04.872Z,8.42
2023-03-19T05:14:50.963Z,8.46
2023-03-19T05:17:48.879Z,8.52
2023-03-19T05:20:25.543Z,8.56
2023-03-19T05:23:15.123Z,8.59
2023-03-19T05:26:09.729Z,8.60
2023-03-19T05:28:59.384Z,8.61
2023-03-19T05:31:38.350Z,8.63
2023-03-19T05:34:08.011Z,8.67
2023-03-19T05:36:39.078Z,8.69
2023-03-19T05:39:15.769Z,8.67
2023-03-19T05:41:50.089Z,8.70
2023-03-19T05:44:23.940Z,8.75
2023-03-19T05:47:17.664Z,8.84
2023-03-19T05:49:53.392Z,8.88
2023-03-19T05:52:24.410Z,8.92
2023-03-19T05:54:55.991Z,8.95
2023-03-19T05:57:59.469Z,8.99
2023-03-19T06:00:51.164Z,9.03
2023-03-19T06:03:22.078Z,9.06
2023-03-19T06:05:55.330Z,9.07
2023-03-19T06:08:35.567Z,9.07
2023-03-19T06:11:29.553Z,9.05
2023-03-19T06:14:20.716Z,9.03
2023-03-19T06:17:10.460Z,9.02
2023-03-19T06:19:41.787Z,9.03
2023-03-19T06:22:16.974Z,9.04
2023-03-19T06:25:00.951Z,9.06
2023-03-19T06:27:43.173Z,9.09
2023-03-19T06:30:24.939Z,9.16
2023-03-19T06:32:59.075Z,9.23
2023-03-19T06:35:50.901Z,9.30
2023-03-19T06:38:32.887Z,9.37
2023-03-19T06:41:24.857Z,9.44
2023-03-19T06:43:56.260Z,9.46
2023-03-19T06:46:37.996Z,9.51
2023-03-19T06:49:08.672Z,9.55
2023-03-19T06:51:39.444Z,9.61
2023-03-19T06:54:12.834Z,9.66
2023-03-19T06:56:44.920Z,9.72
2023-03-19T06:59:16.184Z,9.77
2023-03-19T07:01:58.413Z,9.84
2023-03-19T07:04:38.090Z,9.91
2023-03-19T07:07:28.983Z,10.01
2023-03-19T07:10:22.804Z,10.12
2023-03-19T07:13:35.486Z,10.25
2023-03-19T07:16:38.603Z,10.38
2023-03-19T07:19:29.467Z,10.48
2023-03-19T07:22:11.620Z,10.56
2023-03-19T07:25:04.544Z,10.65
2023-03-19T07:27:41.198Z,10.71
2023-03-19T07:30:36.296Z,10.79
2023-03-19T07:33:21.237Z,10.88
2023-03-19T07:36:30.093Z,11.00
2023-03-19T07:39:03.833Z,11.17
2023-03-19T07:41:34.561Z,11.31
2023-03-19T07:44:08.095Z,11.45
2023-03-19T07:46:39.186Z,11.62
2023-03-19T07:49:12.685Z,11.76
2023-03-19T07:51:47.609Z,11.89
2023-03-19T07:54:20.572Z,12.00
2023-03-19T07:57:11.727Z,12.11
2023-03-19T07:59:44.979Z,12.17
2023-03-19T08:02:20.917Z,12.22
2023-03-19T08:04:53.061Z,12.26
2023-03-19T08:07:23.844Z,12.32
2023-03-19T08:09:58.265Z,12.36
2023-03-19T08:12:27.345Z,12.42
2023-03-19T08:14:58.000Z,12.48
2023-03-19T08:17:28.952Z,12.57
2023-03-19T08:19:59.562Z,12.65
2023-03-19T08:22:30.262Z,12.79
2023-03-19T08:25:01.225Z,12.98
2023-03-19T08:27:34.437Z,13.26
2023-03-19T08:30:05.794Z,13.67
2023-03-19T08:32:37.108Z,13.94
2023-03-19T08:35:07.159Z,14.10
2023-03-19T08:37:38.139Z,14.29
2023-03-19T08:40:11.104Z,14.66
2023-03-19T08:42:45.066Z,14.94
2023-03-19T08:45:21.978Z,15.22
2023-03-19T08:47:52.983Z,15.49
2023-03-19T08:50:23.829Z,15.79
2023-03-19T08:52:54.632Z,16.09
2023-03-19T08:55:25.234Z,16.20
2023-03-19T08:57:55.841Z,16.27
2023-03-19T09:00:28.394Z,16.39
2023-03-19T09:02:59.036Z,16.59
2023-03-19T09:05:29.893Z,16.68
2023-03-19T09:08:00.607Z,16.77
2023-03-19T09:10:31.330Z,16.71
2023-03-19T09:13:02.108Z,16.59
2023-03-19T09:15:33.311Z,16.51
2023-03-19T09:18:04.424Z,16.45
2023-03-19T09:20:35.195Z,16.52
2023-03-19T09:23:04.528Z,16.69
2023-03-19T09:25:35.703Z,17.01
2023-03-19T09:28:07.315Z,17.30
2023-03-19T09:30:41.133Z,17.36
2023-03-19T09:33:12.017Z,17.55
2023-03-19T09:35:42.800Z,17.77
2023-03-19T09:38:13.504Z,17.88
2023-03-19T09:40:47.335Z,17.93
2023-03-19T09:43:37.237Z,17.80
2023-03-19T09:46:15.539Z,17.77
2023-03-19T09:48:52.552Z,17.75
2023-03-19T09:51:31.818Z,17.68
2023-03-19T09:54:06.360Z,17.49
2023-03-19T09:56:37.002Z,17.31
2023-03-19T09:59:09.971Z,17.13
2023-03-19T10:01:46.843Z,16.96
2023-03-19T10:04:46.163Z,16.84
2023-03-19T10:07:26.398Z,16.65
2023-03-19T10:10:10.287Z,16.52
2023-03-19T10:12:52.982Z,16.46
2023-03-19T10:15:29.639Z,16.41
2023-03-19T10:18:05.455Z,16.45
2023-03-19T10:20:50.957Z,16.44
2023-03-19T10:23:38.801Z,16.48
2023-03-19T10:26:13.354Z,16.43
2023-03-19T10:28:47.446Z,16.47
2023-03-19T10:31:31.464Z,16.46
2023-03-19T10:34:11.429Z,16.42
2023-03-19T10:36:42.051Z,16.35
2023-03-19T10:39:17.989Z,16.30
2023-03-19T10:41:55.882Z,16.25
2023-03-19T10:44:32.533Z,16.23
2023-03-19T10:47:13.800Z,16.17
2023-03-19T10:49:44.645Z,16.21
2023-03-19T10:52:26.154Z,16.24
2023-03-19T10:55:03.732Z,16.16
2023-03-19T10:57:34.511Z,16.13
2023-03-19T11:00:17.029Z,16.17
2023-03-19T11:02:53.249Z,16.20
2023-03-19T11:05:31.691Z,16.21
2023-03-19T11:08:04.932Z,16.27
2023-03-19T11:10:37.756Z,16.36
2023-03-19T11:13:23.465Z,16.43
2023-03-19T11:15:56.110Z,16.55
2023-03-19T11:18:29.572Z,16.67
2023-03-19T11:21:02.324Z,16.80
2023-03-19T11:23:39.272Z,16.94
2023-03-19T11:26:10.921Z,17.01
2023-03-19T11:28:45.275Z,17.15
2023-03-19T11:31:21.783Z,17.45
2023-03-19T11:34:01.734Z,17.83
2023-03-19T11:36:38.723Z,18.15
2023-03-19T11:39:28.340Z,18.44
2023-03-19T11:42:27.136Z,18.55
2023-03-19T11:45:09.028Z,18.48
2023-03-19T11:47:51.353Z,18.13
2023-03-19T11:50:30.413Z,18.03
2023-03-19T11:53:13.242Z,17.90
2023-03-19T11:55:50.121Z,17.67
2023-03-19T11:58:56.060Z,17.50
2023-03-19T12:01:42.005Z,17.40
2023-03-19T12:04:34.266Z,17.30
2023-03-19T12:07:15.197Z,17.17
2023-03-19T12:09:53.970Z,17.09
2023-03-19T12:12:29.921Z,16.95
2023-03-19T12:15:15.050Z,16.83
2023-03-19T12:17:59.596Z,16.66
2023-03-19T12:20:38.287Z,16.49
2023-03-19T12:23:28.777Z,16.29
2023-03-19T12:26:06.116Z,16.08
2023-03-19T12:28:41.904Z,15.90
2023-03-19T12:31:47.397Z,15.77
2023-03-19T12:34:29.761Z,15.61
2023-03-19T12:37:14.095Z,15.54
2023-03-19T12:39:51.633Z,15.47
2023-03-19T12:42:27.714Z,15.46
2023-03-19T12:45:00.980Z,15.47
2023-03-19T12:47:38.609Z,15.47
2023-03-19T12:50:13.165Z,15.44
2023-03-19T12:52:45.362Z,15.46
2023-03-19T12:55:21.109Z,15.45
2023-03-19T12:57:56.611Z,15.43
2023-03-19T13:00:33.974Z,15.37
2023-03-19T13:03:13.034Z,15.32
2023-03-19T13:05:47.607Z,15.27
2023-03-19T13:08:24.796Z,15.22
2023-03-19T13:10:55.430Z,15.10
2023-03-19T13:13:37.611Z,15.01
2023-03-19T13:16:18.383Z,14.93
2023-03-19T13:19:00.473Z,14.88
2023-03-19T13:21:35.781Z,14.84
2023-03-19T13:24:16.617Z,14.79
2023-03-19T13:26:48.578Z,14.74
2023-03-19T13:29:23.053Z,14.69
2023-03-19T13:32:01.557Z,14.56
2023-03-19T13:34:36.297Z,14.42
2023-03-19T13:37:16.437Z,14.27
2023-03-19T13:39:48.832Z,14.10
2023-03-19T13:42:41.290Z,14.00
2023-03-19T13:45:35.821Z,13.83
2023-03-19T13:48:35.921Z,13.69
2023-03-19T13:51:25.778Z,13.53
2023-03-19T13:54:07.414Z,13.43
2023-03-19T13:57:05.783Z,13.31
2023-03-19T13:59:37.667Z,13.23
2023-03-19T14:02:50.654Z,13.13
2023-03-19T14:05:22.754Z,13.02
2023-03-19T14:07:58.309Z,12.94
2023-03-19T14:10:32.707Z,12.89
2023-03-19T14:13:10.257Z,12.83
2023-03-19T14:15:49.845Z,12.78
2023-03-19T14:18:24.696Z,12.72
2023-03-19T14:21:03.394Z,12.67
2023-03-19T14:23:46.321Z,12.64
2023-03-19T14:26:30.018Z,12.60
2023-03-19T14:29:06.246Z,12.55
2023-03-19T14:31:42.920Z,12.55
2023-03-19T14:34:31.122Z,12.58
2023-03-19T14:37:06.043Z,12.67
2023-03-19T14:39:43.832Z,12.77
2023-03-19T14:42:24.510Z,12.88
2023-03-19T14:45:26.832Z,12.99
2023-03-19T14:48:16.753Z,13.13
2023-03-19T14:51:32.403Z,13.19
2023-03-19T14:54:07.899Z,13.27
2023-03-19T14:56:39.065Z,13.34
2023-03-19T14:59:11.933Z,13.57
2023-03-19T15:01:54.996Z,13.95
2023-03-19T15:04:27.996Z,14.25
2023-03-19T15:07:01.181Z,14.52
2023-03-19T15:09:35.364Z,14.75
2023-03-19T15:12:42.141Z,14.84
2023-03-19T15:15:37.432Z,14.84
2023-03-19T15:18:12.569Z,14.87
2023-03-19T15:20:47.356Z,14.95
2023-03-19T15:23:27.070Z,15.05
2023-03-19T15:26:01.393Z,15.12
2023-03-19T15:29:18.853Z,15.17
2023-03-19T15:32:04.444Z,15.11
2023-03-19T15:34:37.363Z,15.08
2023-03-19T15:37:12.770Z,15.02
2023-03-19T15:39:50.702Z,15.04
2023-03-19T15:42:41.518Z,15.26
2023-03-19T15:46:27.662Z,15.59
2023-03-19T15:48:40.793Z,16.08
2023-03-19T15:51:14.300Z,16.28
2023-03-19T15:53:46.453Z,16.47
2023-03-19T15:56:19.903Z,16.79
2023-03-19T15:58:55.394Z,16.89
2023-03-19T16:01:27.564Z,16.90
2023-03-19T16:04:03.655Z,16.81
2023-03-19T16:06:37.964Z,16.59
2023-03-19T16:09:23.945Z,16.39
2023-03-19T16:11:56.286Z,16.27
2023-03-19T16:14:32.499Z,16.18
2023-03-19T16:17:05.228Z,16.08
2023-03-19T16:19:39.227Z,15.98
2023-03-19T16:22:17.396Z,15.87
2023-03-19T16:24:50.525Z,15.76
2023-03-19T16:27:23.531Z,15.62
2023-03-19T16:30:00.469Z,15.52
2023-03-19T16:32:32.904Z,15.41
2023-03-19T16:35:14.201Z,15.29
2023-03-19T16:37:46.766Z,15.16
2023-03-19T16:40:41.327Z,14.99
2023-03-19T16:43:18.229Z,14.78
2023-03-19T16:45:53.029Z,14.59
2023-03-19T16:48:23.816Z,14.43
2023-03-19T16:50:54.711Z,14.27
2023-03-19T16:53:39.414Z,14.10
2023-03-19T16:56:15.116Z,13.95
2023-03-19T16:58:48.383Z,13.79
2023-03-19T17:01:22.367Z,13.63
2023-03-19T17:03:54.115Z,13.50
2023-03-19T17:06:25.099Z,13.37
2023-03-19T17:08:55.961Z,13.27
2023-03-19T17:11:33.946Z,13.19
2023-03-19T17:14:06.397Z,13.12
2023-03-19T17:16:37.193Z,13.05
2023-03-19T17:19:20.506Z,12.99
2023-03-19T17:21:54.037Z,12.94
2023-03-19T17:24:27.610Z,12.87
2023-03-19T17:27:00.866Z,12.79
2023-03-19T17:29:33.319Z,12.71
2023-03-19T17:32:06.473Z,12.62
2023-03-19T17:34:38.738Z,12.50
2023-03-19T17:37:14.816Z,12.39
2023-03-19T17:39:45.976Z,12.30
2023-03-19T17:42:22.397Z,12.21
2023-03-19T17:44:53.559Z,12.12
2023-03-19T17:47:24.532Z,12.05
2023-03-19T17:49:56.801Z,11.98
2023-03-19T17:52:30.560Z,11.93
2023-03-19T17:55:01.447Z,11.89
2023-03-19T17:57:32.189Z,11.88
2023-03-19T18:00:03.015Z,11.93
2023-03-19T18:02:36.320Z,11.99
2023-03-19T18:05:08.030Z,12.06
2023-03-19T18:07:51.607Z,12.11
2023-03-19T18:10:26.803Z,12.14
2023-03-19T18:13:00.152Z,12.16
2023-03-19T18:15:33.310Z,12.16
2023-03-19T18:18:06.844Z,12.06
2023-03-19T18:20:42.297Z,11.91
2023-03-19T18:23:33.248Z,11.75
2023-03-19T18:26:04.166Z,11.63
2023-03-19T18:28:34.973Z,11.51
2023-03-19T18:31:22.796Z,11.38
2023-03-19T18:34:00.837Z,11.28
2023-03-19T18:36:34.136Z,11.19
2023-03-19T18:39:08.113Z,11.10
2023-03-19T18:41:38.916Z,11.00
2023-03-19T18:44:12.564Z,10.94
2023-03-19T18:46:43.801Z,10.88
2023-03-19T18:49:34.861Z,10.81
2023-03-19T18:52:05.893Z,10.73
2023-03-19T18:54:40.012Z,10.67
2023-03-19T18:57:15.817Z,10.61
2023-03-19T18:59:46.671Z,10.55
2023-03-19T19:02:32.646Z,10.48
2023-03-19T19:05:03.735Z,10.41
2023-03-19T19:07:37.449Z,10.34
2023-03-19T19:10:10.369Z,10.27
2023-03-19T19:12:53.620Z,10.20
2023-03-19T19:15:27.005Z,10.13
2023-03-19T19:18:01.632Z,10.04
2023-03-19T19:20:41.331Z,9.96
2023-03-19T19:23:14.757Z,9.87
2023-03-19T19:25:48.213Z,9.81
2023-03-19T19:28:26.910Z,9.77
2023-03-19T19:31:07.377Z,9.74
2023-03-19T19:33:38.578Z,9.73
2023-03-19T19:36:11.552Z,9.73
2023-03-19T19:38:42.612Z,9.74
2023-03-19T19:41:16.053Z,9.76
2023-03-19T19:43:50.431Z,9.78
2023-03-19T19:46:23.391Z,9.80
2023-03-19T19:48:54.246Z,9.85
2023-03-19T19:51:32.431Z,9.88
2023-03-19T19:54:04.033Z,9.92
2023-03-19T19:56:34.813Z,9.95
2023-03-19T19:59:15.108Z,9.97
2023-03-19T20:01:46.339Z,9.99
2023-03-19T20:04:15.919Z,10.01
2023-03-19T20:06:46.880Z,10.01
2023-03-19T20:09:17.599Z,9.99
2023-03-19T20:11:48.581Z,9.95
2023-03-19T20:14:19.447Z,9.89
2023-03-19T20:16:50.364Z,9.83
2023-03-19T20:19:21.400Z,9.74
2023-03-19T20:21:53.704Z,9.65
2023-03-19T20:24:24.320Z,9.58
2023-03-19T20:26:55.060Z,9.50
2023-03-19T20:29:25.682Z,9.41
2023-03-19T20:31:58.313Z,9.34
2023-03-19T20:34:39.136Z,9.25
2023-03-19T20:37:11.370Z,9.16
2023-03-19T20:39:42.115Z,9.06
2023-03-19T20:42:22.242Z,8.97
2023-03-19T20:45:04.782Z,8.87
2023-03-19T20:47:35.502Z,8.81
2023-03-19T20:50:20.671Z,8.76
2023-03-19T20:53:11.897Z,8.70
2023-03-19T20:55:47.620Z,8.65
2023-03-19T20:58:32.205Z,8.58
2023-03-19T21:01:14.345Z,8.51
2023-03-19T21:03:53.478Z,8.43
2023-03-19T21:06:26.292Z,8.37
2023-03-19T21:08:58.765Z,8.30
2023-03-19T21:11:40.543Z,8.24
2023-03-19T21:14:23.444Z,8.16
2023-03-19T21:16:57.120Z,8.09
2023-03-19T21:19:30.169Z,8.03
2023-03-19T21:22:01.281Z,7.97
2023-03-19T21:24:32.186Z,7.91
2023-03-19T21:27:04.125Z,7.85
2023-03-19T21:29:35.786Z,7.80
2023-03-19T21:32:13.846Z,7.77
2023-03-19T21:34:44.587Z,7.74
2023-03-19T21:37:15.718Z,7.71
2023-03-19T21:39:47.549Z,7.69
2023-03-19T21:42:23.680Z,7.68
2023-03-19T21:45:00.405Z,7.68
2023-03-19T21:47:31.078Z,7.70
2023-03-19T21:50:02.574Z,7.75
2023-03-19T21:52:54.075Z,7.79
2023-03-19T21:55:28.656Z,7.85
2023-03-19T21:58:00.411Z,7.89
2023-03-19T22:00:32.081Z,7.91
2023-03-19T22:03:02.817Z,7.92
2023-03-19T22:05:33.554Z,7.92
2023-03-19T22:08:04.535Z,7.93
2023-03-19T22:10:35.216Z,7.93
2023-03-19T22:13:06.214Z,7.93
2023-03-19T22:15:38.856Z,7.91
2023-03-19T22:18:30.338Z,7.88
2023-03-19T22:21:00.961Z,7.83
2023-03-19T22:23:31.430Z,7.79
2023-03-19T22:26:02.120Z,7.76
2023-03-19T22:28:35.378Z,7.73
2023-03-19T22:31:06.918Z,7.69
2023-03-19T22:33:39.734Z,7.64
2023-03-19T22:36:13.874Z,7.59
2023-03-19T22:38:48.809Z,7.55
2023-03-19T22:41:24.081Z,7.49
2023-03-19T22:43:55.856Z,7.45
2023-03-19T22:46:29.652Z,7.41
2023-03-19T22:49:03.454Z,7.38
2023-03-19T22:51:54.215Z,7.33
2023-03-19T22:54:24.807Z,7.29
2023-03-19T22:56:55.505Z,7.26
2023-03-19T22:59:29.525Z,7.22
2023-03-19T23:02:04.755Z,7.17
2023-03-19T23:04:46.692Z,7.12
2023-03-19T23:07:20.178Z,7.08
2023-03-19T23:09:50.800Z,7.05
2023-03-19T23:12:24.424Z,7.02
2023-03-19T23:15:04.313Z,6.99
2023-03-19T23:17:37.522Z,6.97
2023-03-19T23:20:15.634Z,6.96
2023-03-19T23:22:46.772Z,6.93
2023-03-19T23:25:23.822Z,6.90
2023-03-19T23:28:21.998Z,6.86
2023-03-19T23:31:04.277Z,6.80
2023-03-19T23:33:46.243Z,6.77
2023-03-19T23:36:17.747Z,6.74
2023-03-19T23:38:51.837Z,6.71
2023-03-19T23:41:24.066Z,6.68
2023-03-19T23:44:08.765Z,6.64
2023-03-19T23:46:39.608Z,6.59
2023-03-19T23:49:29.680Z,6.55
2023-03-19T23:52:00.950Z,6.52
2023-03-19T23:54:33.457Z,6.50
2023-03-19T23:57:17.226Z,6.49
2023-03-19T23:59:53.372Z,6.48
